sensor_id;sensor_type;location;lat;lon;timestamp;P1;durP1;ratioP1;P2;durP2;ratioP2
64244;SDS011;50584;29.058;-110.966;2023-04-06T00:00:33;4.82;;;1.27;;
64244;SDS011;50584;29.058;-110.966;2023-04-06T00:02:59;7.43;;;1.20;;
64244;SDS011;50584;29.058;-110.966;2023-04-06T00:05:25;1.85;;;1.35;;
64244;SDS011;50584;29.058;-110.966;2023-04-06T00:07:52;11.75;;;1.33;;
64244;SDS011;50584;29.058;-110.966;2023-04-06T00:10:21;3.88;;;1.08;;
64244;SDS011;50584;29.058;-110.966;2023-04-06T00:12:46;2.25;;;1.13;;
64244;SDS011;50584;29.058;-110.966;2023-04-06T00:15:12;3.88;;;1.00;;
64244;SDS011;50584;29.058;-110.966;2023-04-06T00:17:38;10.60;;;2.08;;
64244;SDS011;50584;29.058;-110.966;2023-04-06T00:20:04;11.63;;;1.38;;
64244;SDS011;50584;29.058;-110.966;2023-04-06T00:22:30;3.90;;;1.83;;
64244;SDS011;50584;29.058;-110.966;2023-04-06T00:24:55;7.20;;;1.20;;
64244;SDS011;50584;29.058;-110.966;2023-04-06T00:27:21;5.15;;;1.38;;
64244;SDS011;50584;29.058;-110.966;2023-04-06T00:29:47;10.50;;;1.25;;
64244;SDS011;50584;29.058;-110.966;2023-04-06T00:32:13;1.55;;;1.00;;
64244;SDS011;50584;29.058;-110.966;2023-04-06T00:34:38;9.32;;;1.40;;
64244;SDS011;50584;29.058;-110.966;2023-04-06T00:37:04;11.77;;;1.60;;
64244;SDS011;50584;29.058;-110.966;2023-04-06T00:39:30;6.05;;;1.33;;
64244;SDS011;50584;29.058;-110.966;2023-04-06T00:41:56;7.00;;;1.10;;
64244;SDS011;50584;29.058;-110.966;2023-04-06T00:44:22;8.95;;;0.93;;
64244;SDS011;50584;29.058;-110.966;2023-04-06T00:46:48;7.55;;;1.30;;
64244;SDS011;50584;29.058;-110.966;2023-04-06T00:49:14;11.40;;;1.48;;
64244;SDS011;50584;29.058;-110.966;2023-04-06T00:51:39;21.58;;;4.90;;
64244;SDS011;50584;29.058;-110.966;2023-04-06T00:54:05;9.38;;;2.05;;
64244;SDS011;50584;29.058;-110.966;2023-04-06T00:56:31;6.70;;;0.90;;
64244;SDS011;50584;29.058;-110.966;2023-04-06T00:58:57;10.07;;;1.52;;
64244;SDS011;50584;29.058;-110.966;2023-04-06T01:01:23;16.60;;;1.20;;
64244;SDS011;50584;29.058;-110.966;2023-04-06T01:03:49;5.97;;;1.60;;
64244;SDS011;50584;29.058;-110.966;2023-04-06T01:06:15;6.07;;;1.00;;
64244;SDS011;50584;29.058;-110.966;2023-04-06T01:08:41;8.13;;;1.27;;
64244;SDS011;50584;29.058;-110.966;2023-04-06T01:11:07;11.98;;;1.10;;
64244;SDS011;50584;29.058;-110.966;2023-04-06T01:13:32;8.25;;;1.42;;
64244;SDS011;50584;29.058;-110.966;2023-04-06T01:15:58;6.72;;;1.30;;
64244;SDS011;50584;29.058;-110.966;2023-04-06T01:18:27;12.23;;;1.50;;
64244;SDS011;50584;29.058;-110.966;2023-04-06T01:20:53;11.23;;;2.00;;
64244;SDS011;50584;29.058;-110.966;2023-04-06T01:23:19;19.30;;;2.05;;
64244;SDS011;50584;29.058;-110.966;2023-04-06T01:25:45;12.73;;;1.60;;
64244;SDS011;50584;29.058;-110.966;2023-04-06T01:28:11;8.50;;;1.58;;
64244;SDS011;50584;29.058;-110.966;2023-04-06T01:30:36;5.05;;;1.40;;
64244;SDS011;50584;29.058;-110.966;2023-04-06T01:33:02;5.57;;;1.63;;
64244;SDS011;50584;29.058;-110.966;2023-04-06T01:35:28;9.10;;;1.67;;
64244;SDS011;50584;29.058;-110.966;2023-04-06T01:37:54;22.83;;;1.85;;
64244;SDS011;50584;29.058;-110.966;2023-04-06T01:40:20;9.02;;;1.20;;
64244;SDS011;50584;29.058;-110.966;2023-04-06T01:42:46;9.32;;;1.42;;
64244;SDS011;50584;29.058;-110.966;2023-04-06T01:45:12;13.95;;;1.77;;
64244;SDS011;50584;29.058;-110.966;2023-04-06T01:47:38;10.57;;;1.35;;
64244;SDS011;50584;29.058;-110.966;2023-04-06T01:50:04;3.60;;;1.38;;
64244;SDS011;50584;29.058;-110.966;2023-04-06T01:52:32;10.07;;;1.30;;
64244;SDS011;50584;29.058;-110.966;2023-04-06T01:54:58;10.75;;;2.10;;
64244;SDS011;50584;29.058;-110.966;2023-04-06T01:57:24;16.20;;;1.92;;
64244;SDS011;50584;29.058;-110.966;2023-04-06T01:59:50;3.67;;;1.70;;
64244;SDS011;50584;29.058;-110.966;2023-04-06T02:02:16;7.93;;;1.95;;
64244;SDS011;50584;29.058;-110.966;2023-04-06T02:04:42;12.25;;;2.00;;
64244;SDS011;50584;29.058;-110.966;2023-04-06T02:07:08;7.22;;;1.48;;
64244;SDS011;50584;29.058;-110.966;2023-04-06T02:09:34;5.35;;;1.80;;
64244;SDS011;50584;29.058;-110.966;2023-04-06T02:12:00;11.32;;;2.00;;
64244;SDS011;50584;29.058;-110.966;2023-04-06T02:14:26;14.95;;;3.08;;
64244;SDS011;50584;29.058;-110.966;2023-04-06T02:16:52;17.90;;;5.75;;
64244;SDS011;50584;29.058;-110.966;2023-04-06T02:19:18;5.80;;;1.63;;
64244;SDS011;50584;29.058;-110.966;2023-04-06T02:21:44;12.02;;;1.90;;
64244;SDS011;50584;29.058;-110.966;2023-04-06T02:24:09;7.75;;;1.60;;
64244;SDS011;50584;29.058;-110.966;2023-04-06T02:26:35;2.53;;;1.30;;
64244;SDS011;50584;29.058;-110.966;2023-04-06T02:29:01;7.88;;;1.85;;
64244;SDS011;50584;29.058;-110.966;2023-04-06T02:31:27;14.13;;;2.10;;
64244;SDS011;50584;29.058;-110.966;2023-04-06T02:33:53;8.73;;;1.40;;
64244;SDS011;50584;29.058;-110.966;2023-04-06T02:36:19;20.48;;;1.65;;
64244;SDS011;50584;29.058;-110.966;2023-04-06T02:38:45;7.97;;;1.35;;
64244;SDS011;50584;29.058;-110.966;2023-04-06T02:41:11;8.68;;;1.88;;
64244;SDS011;50584;29.058;-110.966;2023-04-06T02:43:36;11.07;;;1.98;;
64244;SDS011;50584;29.058;-110.966;2023-04-06T02:46:02;18.20;;;2.15;;
64244;SDS011;50584;29.058;-110.966;2023-04-06T02:48:28;16.10;;;2.17;;
64244;SDS011;50584;29.058;-110.966;2023-04-06T02:50:54;9.98;;;2.10;;
64244;SDS011;50584;29.058;-110.966;2023-04-06T02:53:20;5.47;;;1.60;;
64244;SDS011;50584;29.058;-110.966;2023-04-06T02:55:45;7.18;;;1.83;;
64244;SDS011;50584;29.058;-110.966;2023-04-06T02:58:11;6.93;;;2.05;;
64244;SDS011;50584;29.058;-110.966;2023-04-06T03:00:37;10.00;;;1.67;;
64244;SDS011;50584;29.058;-110.966;2023-04-06T03:03:03;9.35;;;2.50;;
64244;SDS011;50584;29.058;-110.966;2023-04-06T03:05:28;13.07;;;1.42;;
64244;SDS011;50584;29.058;-110.966;2023-04-06T03:07:54;15.95;;;2.00;;
64244;SDS011;50584;29.058;-110.966;2023-04-06T03:10:20;8.45;;;2.10;;
64244;SDS011;50584;29.058;-110.966;2023-04-06T03:12:46;4.78;;;1.50;;
64244;SDS011;50584;29.058;-110.966;2023-04-06T03:15:12;10.63;;;1.90;;
64244;SDS011;50584;29.058;-110.966;2023-04-06T03:17:38;5.45;;;1.77;;
64244;SDS011;50584;29.058;-110.966;2023-04-06T03:20:04;7.45;;;1.70;;
64244;SDS011;50584;29.058;-110.966;2023-04-06T03:22:30;7.20;;;1.75;;
64244;SDS011;50584;29.058;-110.966;2023-04-06T03:24:56;8.57;;;2.40;;
64244;SDS011;50584;29.058;-110.966;2023-04-06T03:27:21;7.80;;;1.52;;
64244;SDS011;50584;29.058;-110.966;2023-04-06T03:29:47;10.15;;;1.70;;
64244;SDS011;50584;29.058;-110.966;2023-04-06T03:32:13;10.15;;;2.20;;
64244;SDS011;50584;29.058;-110.966;2023-04-06T03:34:39;8.18;;;1.63;;
64244;SDS011;50584;29.058;-110.966;2023-04-06T03:37:04;5.05;;;1.58;;
64244;SDS011;50584;29.058;-110.966;2023-04-06T03:39:30;14.50;;;2.10;;
64244;SDS011;50584;29.058;-110.966;2023-04-06T03:41:57;6.47;;;1.73;;
64244;SDS011;50584;29.058;-110.966;2023-04-06T03:44:22;13.35;;;1.80;;
64244;SDS011;50584;29.058;-110.966;2023-04-06T03:46:48;8.38;;;2.50;;
64244;SDS011;50584;29.058;-110.966;2023-04-06T03:49:14;4.70;;;1.65;;
64244;SDS011;50584;29.058;-110.966;2023-04-06T03:51:40;10.88;;;1.90;;
64244;SDS011;50584;29.058;-110.966;2023-04-06T03:54:05;12.85;;;1.85;;
64244;SDS011;50584;29.058;-110.966;2023-04-06T03:56:31;16.95;;;1.90;;
64244;SDS011;50584;29.058;-110.966;2023-04-06T03:58:57;10.23;;;1.80;;
64244;SDS011;50584;29.058;-110.966;2023-04-06T04:01:23;7.05;;;2.13;;
64244;SDS011;50584;29.058;-110.966;2023-04-06T04:03:49;16.27;;;2.30;;
64244;SDS011;50584;29.058;-110.966;2023-04-06T04:06:15;10.63;;;1.60;;
64244;SDS011;50584;29.058;-110.966;2023-04-06T04:08:40;16.38;;;1.85;;
64244;SDS011;50584;29.058;-110.966;2023-04-06T04:11:06;13.63;;;1.90;;
64244;SDS011;50584;29.058;-110.966;2023-04-06T04:13:32;5.10;;;1.52;;
64244;SDS011;50584;29.058;-110.966;2023-04-06T04:15:58;10.18;;;1.75;;
64244;SDS011;50584;29.058;-110.966;2023-04-06T04:18:23;10.00;;;2.20;;
64244;SDS011;50584;29.058;-110.966;2023-04-06T04:20:49;8.23;;;2.28;;
64244;SDS011;50584;29.058;-110.966;2023-04-06T04:23:15;9.57;;;2.65;;
64244;SDS011;50584;29.058;-110.966;2023-04-06T04:25:41;5.80;;;2.38;;
64244;SDS011;50584;29.058;-110.966;2023-04-06T04:28:06;6.07;;;2.78;;
64244;SDS011;50584;29.058;-110.966;2023-04-06T04:30:32;9.43;;;2.38;;
64244;SDS011;50584;29.058;-110.966;2023-04-06T04:32:58;15.38;;;3.08;;
64244;SDS011;50584;29.058;-110.966;2023-04-06T04:35:24;10.93;;;3.40;;
64244;SDS011;50584;29.058;-110.966;2023-04-06T04:37:50;16.33;;;3.35;;
64244;SDS011;50584;29.058;-110.966;2023-04-06T04:40:16;16.58;;;4.53;;
64244;SDS011;50584;29.058;-110.966;2023-04-06T04:42:42;23.83;;;5.60;;
64244;SDS011;50584;29.058;-110.966;2023-04-06T04:45:08;22.50;;;4.45;;
64244;SDS011;50584;29.058;-110.966;2023-04-06T04:47:34;12.82;;;3.15;;
64244;SDS011;50584;29.058;-110.966;2023-04-06T04:49:59;5.95;;;2.85;;
64244;SDS011;50584;29.058;-110.966;2023-04-06T04:52:25;19.95;;;3.05;;
64244;SDS011;50584;29.058;-110.966;2023-04-06T04:54:51;6.82;;;2.05;;
64244;SDS011;50584;29.058;-110.966;2023-04-06T04:57:17;16.02;;;2.58;;
64244;SDS011;50584;29.058;-110.966;2023-04-06T04:59:43;3.83;;;1.70;;
64244;SDS011;50584;29.058;-110.966;2023-04-06T05:02:08;4.50;;;1.38;;
64244;SDS011;50584;29.058;-110.966;2023-04-06T05:04:35;16.73;;;1.92;;
64244;SDS011;50584;29.058;-110.966;2023-04-06T05:07:10;5.57;;;1.13;;
64244;SDS011;50584;29.058;-110.966;2023-04-06T05:09:35;13.00;;;2.00;;
64244;SDS011;50584;29.058;-110.966;2023-04-06T05:12:01;12.35;;;1.55;;
64244;SDS011;50584;29.058;-110.966;2023-04-06T05:14:27;9.75;;;1.25;;
64244;SDS011;50584;29.058;-110.966;2023-04-06T05:16:53;6.22;;;1.33;;
64244;SDS011;50584;29.058;-110.966;2023-04-06T05:19:19;5.95;;;1.25;;
64244;SDS011;50584;29.058;-110.966;2023-04-06T05:21:45;12.98;;;1.52;;
64244;SDS011;50584;29.058;-110.966;2023-04-06T05:24:11;7.40;;;1.52;;
64244;SDS011;50584;29.058;-110.966;2023-04-06T05:26:37;2.85;;;1.40;;
64244;SDS011;50584;29.058;-110.966;2023-04-06T05:29:03;3.55;;;1.48;;
64244;SDS011;50584;29.058;-110.966;2023-04-06T05:31:28;7.30;;;1.63;;
64244;SDS011;50584;29.058;-110.966;2023-04-06T05:33:55;7.38;;;1.63;;
64244;SDS011;50584;29.058;-110.966;2023-04-06T05:36:20;6.97;;;2.17;;
64244;SDS011;50584;29.058;-110.966;2023-04-06T05:38:46;12.82;;;1.83;;
64244;SDS011;50584;29.058;-110.966;2023-04-06T05:41:12;10.93;;;1.90;;
64244;SDS011;50584;29.058;-110.966;2023-04-06T05:43:38;3.80;;;1.67;;
64244;SDS011;50584;29.058;-110.966;2023-04-06T05:46:04;7.20;;;1.70;;
64244;SDS011;50584;29.058;-110.966;2023-04-06T05:48:29;7.55;;;2.05;;
64244;SDS011;50584;29.058;-110.966;2023-04-06T05:50:55;7.10;;;1.60;;
64244;SDS011;50584;29.058;-110.966;2023-04-06T05:53:21;6.80;;;1.77;;
64244;SDS011;50584;29.058;-110.966;2023-04-06T05:55:47;7.13;;;1.90;;
64244;SDS011;50584;29.058;-110.966;2023-04-06T05:58:13;7.85;;;2.15;;
64244;SDS011;50584;29.058;-110.966;2023-04-06T06:00:39;13.65;;;2.20;;
64244;SDS011;50584;29.058;-110.966;2023-04-06T06:03:04;5.25;;;2.00;;
64244;SDS011;50584;29.058;-110.966;2023-04-06T06:05:31;7.05;;;2.00;;
64244;SDS011;50584;29.058;-110.966;2023-04-06T06:07:57;9.82;;;2.38;;
64244;SDS011;50584;29.058;-110.966;2023-04-06T06:10:23;6.43;;;2.72;;
64244;SDS011;50584;29.058;-110.966;2023-04-06T06:12:48;14.00;;;2.88;;
64244;SDS011;50584;29.058;-110.966;2023-04-06T06:15:14;7.35;;;2.10;;
64244;SDS011;50584;29.058;-110.966;2023-04-06T06:17:40;7.78;;;2.28;;
64244;SDS011;50584;29.058;-110.966;2023-04-06T06:20:06;8.38;;;2.67;;
64244;SDS011;50584;29.058;-110.966;2023-04-06T06:22:32;9.18;;;2.30;;
64244;SDS011;50584;29.058;-110.966;2023-04-06T06:24:58;18.90;;;2.55;;
64244;SDS011;50584;29.058;-110.966;2023-04-06T06:27:24;4.28;;;2.45;;
64244;SDS011;50584;29.058;-110.966;2023-04-06T06:29:50;2.70;;;2.28;;
64244;SDS011;50584;29.058;-110.966;2023-04-06T06:32:16;4.65;;;2.60;;
64244;SDS011;50584;29.058;-110.966;2023-04-06T06:34:41;5.35;;;2.40;;
64244;SDS011;50584;29.058;-110.966;2023-04-06T06:37:07;5.60;;;1.98;;
64244;SDS011;50584;29.058;-110.966;2023-04-06T06:39:33;10.65;;;2.00;;
64244;SDS011;50584;29.058;-110.966;2023-04-06T06:41:59;8.25;;;1.88;;
64244;SDS011;50584;29.058;-110.966;2023-04-06T06:44:28;10.15;;;2.30;;
64244;SDS011;50584;29.058;-110.966;2023-04-06T06:46:53;9.15;;;1.83;;
64244;SDS011;50584;29.058;-110.966;2023-04-06T06:49:19;6.50;;;2.00;;
64244;SDS011;50584;29.058;-110.966;2023-04-06T06:51:45;4.65;;;1.73;;
64244;SDS011;50584;29.058;-110.966;2023-04-06T06:54:11;4.60;;;1.60;;
64244;SDS011;50584;29.058;-110.966;2023-04-06T06:56:38;11.23;;;2.22;;
64244;SDS011;50584;29.058;-110.966;2023-04-06T06:59:04;10.75;;;2.35;;
64244;SDS011;50584;29.058;-110.966;2023-04-06T07:01:32;2.53;;;1.65;;
64244;SDS011;50584;29.058;-110.966;2023-04-06T07:03:58;8.73;;;2.10;;
64244;SDS011;50584;29.058;-110.966;2023-04-06T07:06:24;9.63;;;2.42;;
64244;SDS011;50584;29.058;-110.966;2023-04-06T07:08:50;9.02;;;2.00;;
64244;SDS011;50584;29.058;-110.966;2023-04-06T07:11:16;3.88;;;2.10;;
64244;SDS011;50584;29.058;-110.966;2023-04-06T07:13:42;2.97;;;2.38;;
64244;SDS011;50584;29.058;-110.966;2023-04-06T07:16:07;9.15;;;2.25;;
64244;SDS011;50584;29.058;-110.966;2023-04-06T07:18:33;7.22;;;2.20;;
64244;SDS011;50584;29.058;-110.966;2023-04-06T07:20:59;3.67;;;1.70;;
64244;SDS011;50584;29.058;-110.966;2023-04-06T07:23:25;8.55;;;1.63;;
64244;SDS011;50584;29.058;-110.966;2023-04-06T07:25:51;8.93;;;2.30;;
64244;SDS011;50584;29.058;-110.966;2023-04-06T07:28:19;8.05;;;2.03;;
64244;SDS011;50584;29.058;-110.966;2023-04-06T07:30:44;8.85;;;2.50;;
64244;SDS011;50584;29.058;-110.966;2023-04-06T07:33:10;6.43;;;2.97;;
64244;SDS011;50584;29.058;-110.966;2023-04-06T07:35:37;14.30;;;3.67;;
64244;SDS011;50584;29.058;-110.966;2023-04-06T07:38:03;5.63;;;3.13;;
64244;SDS011;50584;29.058;-110.966;2023-04-06T07:40:29;13.57;;;3.17;;
64244;SDS011;50584;29.058;-110.966;2023-04-06T07:42:57;18.77;;;2.60;;
64244;SDS011;50584;29.058;-110.966;2023-04-06T07:45:22;16.30;;;3.22;;
64244;SDS011;50584;29.058;-110.966;2023-04-06T07:47:48;9.95;;;2.80;;
64244;SDS011;50584;29.058;-110.966;2023-04-06T07:50:15;8.68;;;2.08;;
64244;SDS011;50584;29.058;-110.966;2023-04-06T07:52:41;7.18;;;1.90;;
64244;SDS011;50584;29.058;-110.966;2023-04-06T07:55:07;8.27;;;2.10;;
64244;SDS011;50584;29.058;-110.966;2023-04-06T07:57:32;10.32;;;2.35;;
64244;SDS011;50584;29.058;-110.966;2023-04-06T07:59:58;7.57;;;3.33;;
64244;SDS011;50584;29.058;-110.966;2023-04-06T08:02:24;7.43;;;2.50;;
64244;SDS011;50584;29.058;-110.966;2023-04-06T08:04:50;9.85;;;2.85;;
64244;SDS011;50584;29.058;-110.966;2023-04-06T08:07:16;5.95;;;2.10;;
64244;SDS011;50584;29.058;-110.966;2023-04-06T08:09:42;3.78;;;1.63;;
64244;SDS011;50584;29.058;-110.966;2023-04-06T08:12:08;17.42;;;2.97;;
64244;SDS011;50584;29.058;-110.966;2023-04-06T08:14:33;4.60;;;1.90;;
64244;SDS011;50584;29.058;-110.966;2023-04-06T08:17:00;8.15;;;1.98;;
64244;SDS011;50584;29.058;-110.966;2023-04-06T08:19:25;6.28;;;2.90;;
64244;SDS011;50584;29.058;-110.966;2023-04-06T08:21:51;6.55;;;3.70;;
64244;SDS011;50584;29.058;-110.966;2023-04-06T08:24:17;8.88;;;3.85;;
64244;SDS011;50584;29.058;-110.966;2023-04-06T08:26:43;4.60;;;3.60;;
64244;SDS011;50584;29.058;-110.966;2023-04-06T08:29:08;5.95;;;3.22;;
64244;SDS011;50584;29.058;-110.966;2023-04-06T08:31:34;8.07;;;2.40;;
64244;SDS011;50584;29.058;-110.966;2023-04-06T08:34:01;7.05;;;2.40;;
64244;SDS011;50584;29.058;-110.966;2023-04-06T08:36:27;18.35;;;2.83;;
64244;SDS011;50584;29.058;-110.966;2023-04-06T08:38:53;11.00;;;3.30;;
64244;SDS011;50584;29.058;-110.966;2023-04-06T08:41:19;14.00;;;3.00;;
64244;SDS011;50584;29.058;-110.966;2023-04-06T08:43:49;17.25;;;3.00;;
64244;SDS011;50584;29.058;-110.966;2023-04-06T08:46:15;7.10;;;2.28;;
64244;SDS011;50584;29.058;-110.966;2023-04-06T08:48:41;7.15;;;2.25;;
64244;SDS011;50584;29.058;-110.966;2023-04-06T08:51:10;9.98;;;1.85;;
64244;SDS011;50584;29.058;-110.966;2023-04-06T08:53:37;7.80;;;2.25;;
64244;SDS011;50584;29.058;-110.966;2023-04-06T08:56:03;9.85;;;2.30;;
64244;SDS011;50584;29.058;-110.966;2023-04-06T08:58:32;5.15;;;2.33;;
64244;SDS011;50584;29.058;-110.966;2023-04-06T09:00:58;7.45;;;2.05;;
64244;SDS011;50584;29.058;-110.966;2023-04-06T09:03:24;8.00;;;2.17;;
64244;SDS011;50584;29.058;-110.966;2023-04-06T09:05:51;6.40;;;2.00;;
64244;SDS011;50584;29.058;-110.966;2023-04-06T09:08:17;4.07;;;2.10;;
64244;SDS011;50584;29.058;-110.966;2023-04-06T09:10:42;10.00;;;1.92;;
64244;SDS011;50584;29.058;-110.966;2023-04-06T09:13:08;10.23;;;2.15;;
64244;SDS011;50584;29.058;-110.966;2023-04-06T09:15:34;5.18;;;2.30;;
64244;SDS011;50584;29.058;-110.966;2023-04-06T09:18:00;7.97;;;3.65;;
64244;SDS011;50584;29.058;-110.966;2023-04-06T09:20:26;10.75;;;2.28;;
64244;SDS011;50584;29.058;-110.966;2023-04-06T09:22:53;12.35;;;2.78;;
64244;SDS011;50584;29.058;-110.966;2023-04-06T09:25:23;19.83;;;2.83;;
64244;SDS011;50584;29.058;-110.966;2023-04-06T09:27:57;4.07;;;2.63;;
64244;SDS011;50584;29.058;-110.966;2023-04-06T09:30:24;12.48;;;4.00;;
64244;SDS011;50584;29.058;-110.966;2023-04-06T09:32:51;15.18;;;2.78;;
64244;SDS011;50584;29.058;-110.966;2023-04-06T09:35:17;15.35;;;2.92;;
64244;SDS011;50584;29.058;-110.966;2023-04-06T09:37:46;7.93;;;3.10;;
64244;SDS011;50584;29.058;-110.966;2023-04-06T09:40:12;5.40;;;2.63;;
64244;SDS011;50584;29.058;-110.966;2023-04-06T09:42:40;15.80;;;3.40;;
64244;SDS011;50584;29.058;-110.966;2023-04-06T09:45:06;13.60;;;3.38;;
64244;SDS011;50584;29.058;-110.966;2023-04-06T09:47:32;6.10;;;3.25;;
64244;SDS011;50584;29.058;-110.966;2023-04-06T09:49:59;18.05;;;3.42;;
64244;SDS011;50584;29.058;-110.966;2023-04-06T09:52:39;27.38;;;4.03;;
64244;SDS011;50584;29.058;-110.966;2023-04-06T09:57:56;17.98;;;3.47;;
64244;SDS011;50584;29.058;-110.966;2023-04-06T10:00:21;17.58;;;3.92;;
64244;SDS011;50584;29.058;-110.966;2023-04-06T10:02:51;19.85;;;3.63;;
64244;SDS011;50584;29.058;-110.966;2023-04-06T10:08:06;27.42;;;4.47;;
64244;SDS011;50584;29.058;-110.966;2023-04-06T10:10:32;8.60;;;3.88;;
64244;SDS011;50584;29.058;-110.966;2023-04-06T10:12:58;23.23;;;4.38;;
64244;SDS011;50584;29.058;-110.966;2023-04-06T10:15:25;23.52;;;5.63;;
64244;SDS011;50584;29.058;-110.966;2023-04-06T10:17:51;9.48;;;4.07;;
64244;SDS011;50584;29.058;-110.966;2023-04-06T10:23:41;17.38;;;3.97;;
64244;SDS011;50584;29.058;-110.966;2023-04-06T10:26:02;10.13;;;3.85;;
64244;SDS011;50584;29.058;-110.966;2023-04-06T10:28:35;5.55;;;3.53;;
64244;SDS011;50584;29.058;-110.966;2023-04-06T10:31:02;9.32;;;3.60;;
64244;SDS011;50584;29.058;-110.966;2023-04-06T10:33:28;11.27;;;3.08;;
64244;SDS011;50584;29.058;-110.966;2023-04-06T10:35:54;9.77;;;3.47;;
64244;SDS011;50584;29.058;-110.966;2023-04-06T10:38:43;9.35;;;3.72;;
64244;SDS011;50584;29.058;-110.966;2023-04-06T10:41:09;11.07;;;3.67;;
64244;SDS011;50584;29.058;-110.966;2023-04-06T10:43:36;11.43;;;3.58;;
64244;SDS011;50584;29.058;-110.966;2023-04-06T10:46:02;9.68;;;3.80;;
64244;SDS011;50584;29.058;-110.966;2023-04-06T10:48:41;13.15;;;3.45;;
64244;SDS011;50584;29.058;-110.966;2023-04-06T10:51:11;16.25;;;3.42;;
64244;SDS011;50584;29.058;-110.966;2023-04-06T10:53:37;9.45;;;3.22;;
64244;SDS011;50584;29.058;-110.966;2023-04-06T10:56:04;14.35;;;3.92;;
64244;SDS011;50584;29.058;-110.966;2023-04-06T10:58:30;12.48;;;3.30;;
64244;SDS011;50584;29.058;-110.966;2023-04-06T11:00:56;12.60;;;3.30;;
64244;SDS011;50584;29.058;-110.966;2023-04-06T11:03:22;5.63;;;2.80;;
64244;SDS011;50584;29.058;-110.966;2023-04-06T11:05:49;12.13;;;3.10;;
64244;SDS011;50584;29.058;-110.966;2023-04-06T11:08:22;6.38;;;2.50;;
64244;SDS011;50584;29.058;-110.966;2023-04-06T11:10:48;6.50;;;3.05;;
64244;SDS011;50584;29.058;-110.966;2023-04-06T11:13:14;18.25;;;2.97;;
64244;SDS011;50584;29.058;-110.966;2023-04-06T11:15:40;5.20;;;2.85;;
64244;SDS011;50584;29.058;-110.966;2023-04-06T11:18:06;11.57;;;2.80;;
64244;SDS011;50584;29.058;-110.966;2023-04-06T11:20:32;8.48;;;2.92;;
64244;SDS011;50584;29.058;-110.966;2023-04-06T11:22:57;6.72;;;2.53;;
64244;SDS011;50584;29.058;-110.966;2023-04-06T11:25:25;4.38;;;2.60;;
64244;SDS011;50584;29.058;-110.966;2023-04-06T11:27:55;6.07;;;3.55;;
64244;SDS011;50584;29.058;-110.966;2023-04-06T11:30:21;14.10;;;3.05;;
64244;SDS011;50584;29.058;-110.966;2023-04-06T11:32:46;8.07;;;2.90;;
64244;SDS011;50584;29.058;-110.966;2023-04-06T11:35:22;12.30;;;3.42;;
64244;SDS011;50584;29.058;-110.966;2023-04-06T11:37:48;9.10;;;2.70;;
64244;SDS011;50584;29.058;-110.966;2023-04-06T11:40:15;9.68;;;2.97;;
64244;SDS011;50584;29.058;-110.966;2023-04-06T11:42:40;9.40;;;2.78;;
64244;SDS011;50584;29.058;-110.966;2023-04-06T11:45:07;13.48;;;2.95;;
64244;SDS011;50584;29.058;-110.966;2023-04-06T11:47:34;8.60;;;2.83;;
64244;SDS011;50584;29.058;-110.966;2023-04-06T11:50:06;12.95;;;2.80;;
64244;SDS011;50584;29.058;-110.966;2023-04-06T11:52:32;9.70;;;3.03;;
64244;SDS011;50584;29.058;-110.966;2023-04-06T11:54:58;10.38;;;3.88;;
64244;SDS011;50584;29.058;-110.966;2023-04-06T11:57:24;15.48;;;3.17;;
64244;SDS011;50584;29.058;-110.966;2023-04-06T11:59:50;11.55;;;3.80;;
64244;SDS011;50584;29.058;-110.966;2023-04-06T12:02:16;14.77;;;2.30;;
64244;SDS011;50584;29.058;-110.966;2023-04-06T12:04:43;6.40;;;2.70;;
64244;SDS011;50584;29.058;-110.966;2023-04-06T12:07:09;11.70;;;3.28;;
64244;SDS011;50584;29.058;-110.966;2023-04-06T12:09:35;13.95;;;3.22;;
64244;SDS011;50584;29.058;-110.966;2023-04-06T12:12:01;10.98;;;4.10;;
64244;SDS011;50584;29.058;-110.966;2023-04-06T12:14:27;9.02;;;3.58;;
64244;SDS011;50584;29.058;-110.966;2023-04-06T12:16:53;11.50;;;3.70;;
64244;SDS011;50584;29.058;-110.966;2023-04-06T12:19:19;10.43;;;4.32;;
64244;SDS011;50584;29.058;-110.966;2023-04-06T12:21:46;13.60;;;3.65;;
64244;SDS011;50584;29.058;-110.966;2023-04-06T12:24:11;12.48;;;3.85;;
64244;SDS011;50584;29.058;-110.966;2023-04-06T12:26:37;18.23;;;3.60;;
64244;SDS011;50584;29.058;-110.966;2023-04-06T12:29:03;8.25;;;3.22;;
64244;SDS011;50584;29.058;-110.966;2023-04-06T12:31:32;19.77;;;3.85;;
64244;SDS011;50584;29.058;-110.966;2023-04-06T12:33:58;10.73;;;3.67;;
64244;SDS011;50584;29.058;-110.966;2023-04-06T12:36:24;9.75;;;3.13;;
64244;SDS011;50584;29.058;-110.966;2023-04-06T12:38:50;12.13;;;3.55;;
64244;SDS011;50584;29.058;-110.966;2023-04-06T12:41:19;10.50;;;3.67;;
64244;SDS011;50584;29.058;-110.966;2023-04-06T12:43:45;10.38;;;3.92;;
64244;SDS011;50584;29.058;-110.966;2023-04-06T12:46:11;15.50;;;3.42;;
64244;SDS011;50584;29.058;-110.966;2023-04-06T12:48:37;9.70;;;3.38;;
64244;SDS011;50584;29.058;-110.966;2023-04-06T12:51:06;12.07;;;3.47;;
64244;SDS011;50584;29.058;-110.966;2023-04-06T12:53:32;5.20;;;2.95;;
64244;SDS011;50584;29.058;-110.966;2023-04-06T12:55:58;8.95;;;2.88;;
64244;SDS011;50584;29.058;-110.966;2023-04-06T12:58:24;16.48;;;3.33;;
64244;SDS011;50584;29.058;-110.966;2023-04-06T13:00:54;16.83;;;3.60;;
64244;SDS011;50584;29.058;-110.966;2023-04-06T13:03:21;11.57;;;2.97;;
64244;SDS011;50584;29.058;-110.966;2023-04-06T13:05:48;12.32;;;3.00;;
64244;SDS011;50584;29.058;-110.966;2023-04-06T13:08:14;7.15;;;2.42;;
64244;SDS011;50584;29.058;-110.966;2023-04-06T13:10:58;10.20;;;3.20;;
64244;SDS011;50584;29.058;-110.966;2023-04-06T13:13:24;6.30;;;2.70;;
64244;SDS011;50584;29.058;-110.966;2023-04-06T13:15:51;5.63;;;3.35;;
64244;SDS011;50584;29.058;-110.966;2023-04-06T13:18:16;5.00;;;3.08;;
64244;SDS011;50584;29.058;-110.966;2023-04-06T13:20:42;9.50;;;2.83;;
64244;SDS011;50584;29.058;-110.966;2023-04-06T13:23:08;16.13;;;3.85;;
64244;SDS011;50584;29.058;-110.966;2023-04-06T13:25:34;8.07;;;3.60;;
64244;SDS011;50584;29.058;-110.966;2023-04-06T13:28:00;16.33;;;3.80;;
64244;SDS011;50584;29.058;-110.966;2023-04-06T13:30:26;10.90;;;4.43;;
64244;SDS011;50584;29.058;-110.966;2023-04-06T13:32:52;12.55;;;2.92;;
64244;SDS011;50584;29.058;-110.966;2023-04-06T13:35:17;8.95;;;2.83;;
64244;SDS011;50584;29.058;-110.966;2023-04-06T13:37:43;9.23;;;2.60;;
64244;SDS011;50584;29.058;-110.966;2023-04-06T13:40:09;9.32;;;2.90;;
64244;SDS011;50584;29.058;-110.966;2023-04-06T13:42:35;8.07;;;2.78;;
64244;SDS011;50584;29.058;-110.966;2023-04-06T13:45:03;4.57;;;2.30;;
64244;SDS011;50584;29.058;-110.966;2023-04-06T13:47:29;4.78;;;2.20;;
64244;SDS011;50584;29.058;-110.966;2023-04-06T13:49:55;5.50;;;2.10;;
64244;SDS011;50584;29.058;-110.966;2023-04-06T13:52:21;5.18;;;2.10;;
64244;SDS011;50584;29.058;-110.966;2023-04-06T13:54:48;8.13;;;2.60;;
64244;SDS011;50584;29.058;-110.966;2023-04-06T13:57:13;9.77;;;3.25;;
64244;SDS011;50584;29.058;-110.966;2023-04-06T13:59:39;11.07;;;3.38;;
64244;SDS011;50584;29.058;-110.966;2023-04-06T14:02:06;7.50;;;3.10;;
64244;SDS011;50584;29.058;-110.966;2023-04-06T14:04:32;6.10;;;2.72;;
64244;SDS011;50584;29.058;-110.966;2023-04-06T14:06:59;15.00;;;3.45;;